sensor_id;sensor_type;location;lat;lon;timestamp;P1;durP1;ratioP1;P2;durP2;ratioP2
71570;SDS011;59407;42.682;23.322;2024-03-23T00:55:27;26.05;;;10.70;;
71570;SDS011;59407;42.682;23.322;2024-03-23T00:57:53;21.55;;;10.70;;
71570;SDS011;59407;42.682;23.322;2024-03-23T01:00:19;21.90;;;10.43;;
71570;SDS011;59407;42.682;23.322;2024-03-23T01:02:45;25.40;;;10.82;;
71570;SDS011;59407;42.682;23.322;2024-03-23T01:05:11;23.27;;;10.33;;
71570;SDS011;59407;42.682;23.322;2024-03-23T01:07:39;20.58;;;9.52;;
71570;SDS011;59407;42.682;23.322;2024-03-23T01:10:06;18.05;;;10.20;;
71570;SDS011;59407;42.682;23.322;2024-03-23T01:12:32;20.02;;;10.52;;
71570;SDS011;59407;42.682;23.322;2024-03-23T01:15:00;21.60;;;10.00;;
71570;SDS011;59407;42.682;23.322;2024-03-23T01:17:27;21.13;;;10.80;;
71570;SDS011;59407;42.682;23.322;2024-03-23T01:19:53;23.13;;;9.98;;
71570;SDS011;59407;42.682;23.322;2024-03-23T01:22:19;20.80;;;10.00;;
71570;SDS011;59407;42.682;23.322;2024-03-23T01:24:45;20.95;;;10.70;;
71570;SDS011;59407;42.682;23.322;2024-03-23T01:27:13;18.75;;;9.27;;
71570;SDS011;59407;42.682;23.322;2024-03-23T01:29:38;18.52;;;9.52;;
71570;SDS011;59407;42.682;23.322;2024-03-23T01:32:04;24.35;;;11.45;;
71570;SDS011;59407;42.682;23.322;2024-03-23T01:34:38;22.73;;;10.32;;
71570;SDS011;59407;42.682;23.322;2024-03-23T01:37:03;18.25;;;10.18;;
71570;SDS011;59407;42.682;23.322;2024-03-23T01:39:30;19.02;;;10.15;;
71570;SDS011;59407;42.682;23.322;2024-03-23T01:41:57;23.88;;;10.07;;
71570;SDS011;59407;42.682;23.322;2024-03-23T01:44:26;20.92;;;10.77;;
71570;SDS011;59407;42.682;23.322;2024-03-23T01:46:52;20.17;;;10.35;;
71570;SDS011;59407;42.682;23.322;2024-03-23T01:49:19;22.98;;;9.68;;
71570;SDS011;59407;42.682;23.322;2024-03-23T01:51:45;17.77;;;9.68;;
71570;SDS011;59407;42.682;23.322;2024-03-23T01:54:10;16.58;;;8.82;;
71570;SDS011;59407;42.682;23.322;2024-03-23T01:56:36;19.45;;;9.45;;
71570;SDS011;59407;42.682;23.322;2024-03-23T01:59:03;22.15;;;10.63;;
71570;SDS011;59407;42.682;23.322;2024-03-23T02:01:32;20.80;;;9.80;;
71570;SDS011;59407;42.682;23.322;2024-03-23T02:03:58;16.20;;;9.77;;
71570;SDS011;59407;42.682;23.322;2024-03-23T02:06:24;19.88;;;9.48;;
71570;SDS011;59407;42.682;23.322;2024-03-23T02:08:50;20.92;;;10.65;;
71570;SDS011;59407;42.682;23.322;2024-03-23T02:11:16;17.73;;;9.25;;
71570;SDS011;59407;42.682;23.322;2024-03-23T02:13:41;16.77;;;9.02;;
71570;SDS011;59407;42.682;23.322;2024-03-23T02:16:07;15.80;;;8.40;;
71570;SDS011;59407;42.682;23.322;2024-03-23T02:18:33;20.02;;;9.50;;
71570;SDS011;59407;42.682;23.322;2024-03-23T02:20:59;17.03;;;8.80;;
71570;SDS011;59407;42.682;23.322;2024-03-23T02:23:24;21.00;;;9.50;;
71570;SDS011;59407;42.682;23.322;2024-03-23T02:25:50;20.00;;;9.73;;
71570;SDS011;59407;42.682;23.322;2024-03-23T02:28:18;17.30;;;10.02;;
71570;SDS011;59407;42.682;23.322;2024-03-23T02:30:45;19.55;;;10.00;;
71570;SDS011;59407;42.682;23.322;2024-03-23T02:33:11;17.77;;;9.13;;
71570;SDS011;59407;42.682;23.322;2024-03-23T02:35:36;17.70;;;9.53;;
71570;SDS011;59407;42.682;23.322;2024-03-23T02:38:02;17.17;;;7.47;;
71570;SDS011;59407;42.682;23.322;2024-03-23T02:40:29;16.02;;;8.10;;
71570;SDS011;59407;42.682;23.322;2024-03-23T02:42:55;17.90;;;9.07;;
71570;SDS011;59407;42.682;23.322;2024-03-23T02:45:21;18.63;;;8.80;;
71570;SDS011;59407;42.682;23.322;2024-03-23T02:47:47;17.40;;;8.82;;
71570;SDS011;59407;42.682;23.322;2024-03-23T02:50:17;21.80;;;10.27;;
71570;SDS011;59407;42.682;23.322;2024-03-23T02:52:44;21.27;;;8.85;;
71570;SDS011;59407;42.682;23.322;2024-03-23T02:55:10;15.73;;;8.27;;
71570;SDS011;59407;42.682;23.322;2024-03-23T02:57:37;20.30;;;9.55;;
71570;SDS011;59407;42.682;23.322;2024-03-23T03:00:03;17.55;;;7.88;;
71570;SDS011;59407;42.682;23.322;2024-03-23T03:02:30;18.63;;;8.97;;
71570;SDS011;59407;42.682;23.322;2024-03-23T03:04:57;18.58;;;8.82;;
71570;SDS011;59407;42.682;23.322;2024-03-23T03:07:23;14.20;;;8.75;;
71570;SDS011;59407;42.682;23.322;2024-03-23T03:09:48;16.37;;;8.13;;
71570;SDS011;59407;42.682;23.322;2024-03-23T03:12:14;13.10;;;7.43;;
71570;SDS011;59407;42.682;23.322;2024-03-23T03:14:42;15.98;;;8.73;;
71570;SDS011;59407;42.682;23.322;2024-03-23T03:17:09;17.65;;;8.63;;
71570;SDS011;59407;42.682;23.322;2024-03-23T03:19:38;19.55;;;8.10;;
71570;SDS011;59407;42.682;23.322;2024-03-23T03:22:03;14.00;;;8.33;;
71570;SDS011;59407;42.682;23.322;2024-03-23T03:24:29;15.63;;;8.13;;
71570;SDS011;59407;42.682;23.322;2024-03-23T03:26:56;20.70;;;8.95;;
71570;SDS011;59407;42.682;23.322;2024-03-23T03:29:23;18.25;;;8.00;;
71570;SDS011;59407;42.682;23.322;2024-03-23T03:31:52;16.05;;;8.73;;
71570;SDS011;59407;42.682;23.322;2024-03-23T03:34:18;19.80;;;9.10;;
71570;SDS011;59407;42.682;23.322;2024-03-23T03:36:46;19.10;;;9.48;;
71570;SDS011;59407;42.682;23.322;2024-03-23T03:39:18;20.38;;;8.40;;
71570;SDS011;59407;42.682;23.322;2024-03-23T03:41:46;17.73;;;9.85;;
71570;SDS011;59407;42.682;23.322;2024-03-23T03:44:11;17.88;;;10.38;;
71570;SDS011;59407;42.682;23.322;2024-03-23T03:46:40;18.53;;;8.80;;
71570;SDS011;59407;42.682;23.322;2024-03-23T03:49:07;18.85;;;9.15;;
71570;SDS011;59407;42.682;23.322;2024-03-23T03:51:33;24.65;;;11.07;;
71570;SDS011;59407;42.682;23.322;2024-03-23T03:54:04;18.40;;;9.23;;
71570;SDS011;59407;42.682;23.322;2024-03-23T03:56:30;20.52;;;9.90;;
71570;SDS011;59407;42.682;23.322;2024-03-23T03:58:59;21.63;;;9.50;;
71570;SDS011;59407;42.682;23.322;2024-03-23T04:01:24;17.67;;;8.52;;
71570;SDS011;59407;42.682;23.322;2024-03-23T04:03:51;16.55;;;8.43;;
71570;SDS011;59407;42.682;23.322;2024-03-23T04:06:20;15.13;;;7.90;;
71570;SDS011;59407;42.682;23.322;2024-03-23T04:08:48;15.40;;;8.43;;
71570;SDS011;59407;42.682;23.322;2024-03-23T04:11:15;14.57;;;7.30;;
71570;SDS011;59407;42.682;23.322;2024-03-23T04:13:41;15.75;;;6.85;;
71570;SDS011;59407;42.682;23.322;2024-03-23T04:16:07;14.35;;;6.80;;
71570;SDS011;59407;42.682;23.322;2024-03-23T04:18:37;17.45;;;6.47;;
71570;SDS011;59407;42.682;23.322;2024-03-23T04:21:04;15.52;;;7.30;;
71570;SDS011;59407;42.682;23.322;2024-03-23T04:23:31;17.48;;;8.02;;
71570;SDS011;59407;42.682;23.322;2024-03-23T04:26:02;12.47;;;7.23;;
71570;SDS011;59407;42.682;23.322;2024-03-23T04:28:30;14.50;;;7.18;;
71570;SDS011;59407;42.682;23.322;2024-03-23T04:30:58;12.40;;;6.90;;
71570;SDS011;59407;42.682;23.322;2024-03-23T04:33:29;16.08;;;6.68;;
71570;SDS011;59407;42.682;23.322;2024-03-23T04:35:55;17.37;;;6.87;;
71570;SDS011;59407;42.682;23.322;2024-03-23T04:38:23;11.95;;;6.13;;
71570;SDS011;59407;42.682;23.322;2024-03-23T04:40:58;15.60;;;6.70;;
71570;SDS011;59407;42.682;23.322;2024-03-23T04:43:27;15.02;;;6.65;;
71570;SDS011;59407;42.682;23.322;2024-03-23T04:45:53;12.55;;;6.63;;
71570;SDS011;59407;42.682;23.322;2024-03-23T04:48:20;15.17;;;6.77;;
71570;SDS011;59407;42.682;23.322;2024-03-23T04:50:54;11.50;;;6.03;;
71570;SDS011;59407;42.682;23.322;2024-03-23T04:53:20;10.65;;;6.28;;
71570;SDS011;59407;42.682;23.322;2024-03-23T04:55:48;12.80;;;5.75;;
71570;SDS011;59407;42.682;23.322;2024-03-23T04:58:16;14.93;;;5.95;;
71570;SDS011;59407;42.682;23.322;2024-03-23T05:00:42;13.43;;;6.60;;
71570;SDS011;59407;42.682;23.322;2024-03-23T05:03:08;13.70;;;6.47;;
71570;SDS011;59407;42.682;23.322;2024-03-23T05:05:35;15.55;;;7.45;;
71570;SDS011;59407;42.682;23.322;2024-03-23T05:08:07;11.13;;;6.20;;
71570;SDS011;59407;42.682;23.322;2024-03-23T05:10:35;16.48;;;7.82;;
71570;SDS011;59407;42.682;23.322;2024-03-23T05:13:02;13.52;;;6.68;;
71570;SDS011;59407;42.682;23.322;2024-03-23T05:15:31;13.77;;;7.37;;
71570;SDS011;59407;42.682;23.322;2024-03-23T05:17:57;13.73;;;6.72;;
71570;SDS011;59407;42.682;23.322;2024-03-23T05:20:23;13.07;;;6.47;;
71570;SDS011;59407;42.682;23.322;2024-03-23T05:22:51;17.80;;;6.70;;
71570;SDS011;59407;42.682;23.322;2024-03-23T05:25:18;15.68;;;6.90;;
71570;SDS011;59407;42.682;23.322;2024-03-23T05:27:44;13.25;;;7.22;;
71570;SDS011;59407;42.682;23.322;2024-03-23T05:30:09;13.27;;;6.90;;
71570;SDS011;59407;42.682;23.322;2024-03-23T05:32:36;16.55;;;6.53;;
71570;SDS011;59407;42.682;23.322;2024-03-23T05:35:01;12.70;;;6.47;;
71570;SDS011;59407;42.682;23.322;2024-03-23T05:37:27;12.38;;;6.07;;
71570;SDS011;59407;42.682;23.322;2024-03-23T05:39:57;17.15;;;7.15;;
71570;SDS011;59407;42.682;23.322;2024-03-23T05:42:23;12.07;;;5.83;;
71570;SDS011;59407;42.682;23.322;2024-03-23T05:44:51;12.93;;;7.25;;
71570;SDS011;59407;42.682;23.322;2024-03-23T05:47:19;11.65;;;6.18;;
71570;SDS011;59407;42.682;23.322;2024-03-23T05:49:45;12.83;;;7.03;;
71570;SDS011;59407;42.682;23.322;2024-03-23T05:52:11;16.40;;;7.72;;
71570;SDS011;59407;42.682;23.322;2024-03-23T05:54:36;11.25;;;6.78;;
71570;SDS011;59407;42.682;23.322;2024-03-23T05:57:02;13.87;;;7.20;;
71570;SDS011;59407;42.682;23.322;2024-03-23T05:59:32;12.55;;;6.40;;
71570;SDS011;59407;42.682;23.322;2024-03-23T06:01:59;14.40;;;8.43;;
71570;SDS011;59407;42.682;23.322;2024-03-23T06:04:28;15.80;;;7.57;;
71570;SDS011;59407;42.682;23.322;2024-03-23T06:06:55;13.45;;;7.85;;
71570;SDS011;59407;42.682;23.322;2024-03-23T06:09:22;15.00;;;7.93;;
71570;SDS011;59407;42.682;23.322;2024-03-23T06:11:49;16.20;;;8.02;;
71570;SDS011;59407;42.682;23.322;2024-03-23T06:14:17;15.55;;;7.93;;
71570;SDS011;59407;42.682;23.322;2024-03-23T06:16:43;13.38;;;7.20;;
71570;SDS011;59407;42.682;23.322;2024-03-23T06:19:08;14.80;;;7.73;;
71570;SDS011;59407;42.682;23.322;2024-03-23T06:21:38;13.52;;;7.40;;
71570;SDS011;59407;42.682;23.322;2024-03-23T06:24:11;14.40;;;7.85;;
71570;SDS011;59407;42.682;23.322;2024-03-23T06:26:39;14.23;;;6.82;;
71570;SDS011;59407;42.682;23.322;2024-03-23T06:29:05;15.35;;;8.40;;
71570;SDS011;59407;42.682;23.322;2024-03-23T06:31:34;15.48;;;7.60;;
71570;SDS011;59407;42.682;23.322;2024-03-23T06:34:00;17.98;;;9.00;;
71570;SDS011;59407;42.682;23.322;2024-03-23T06:36:27;16.85;;;8.38;;
71570;SDS011;59407;42.682;23.322;2024-03-23T06:38:55;19.83;;;8.93;;
71570;SDS011;59407;42.682;23.322;2024-03-23T06:41:21;17.55;;;8.52;;
71570;SDS011;59407;42.682;23.322;2024-03-23T06:43:50;15.65;;;8.13;;
71570;SDS011;59407;42.682;23.322;2024-03-23T06:46:19;17.00;;;8.20;;
71570;SDS011;59407;42.682;23.322;2024-03-23T06:48:45;16.50;;;9.00;;
71570;SDS011;59407;42.682;23.322;2024-03-23T06:51:11;16.63;;;8.68;;
71570;SDS011;59407;42.682;23.322;2024-03-23T06:53:37;18.40;;;10.30;;
71570;SDS011;59407;42.682;23.322;2024-03-23T06:56:04;18.25;;;9.57;;
71570;SDS011;59407;42.682;23.322;2024-03-23T06:58:51;17.93;;;9.50;;
71570;SDS011;59407;42.682;23.322;2024-03-23T07:01:17;15.73;;;8.52;;
71570;SDS011;59407;42.682;23.322;2024-03-23T07:03:43;19.13;;;9.27;;
71570;SDS011;59407;42.682;23.322;2024-03-23T07:06:09;17.33;;;8.93;;
71570;SDS011;59407;42.682;23.322;2024-03-23T07:08:38;15.30;;;8.05;;
71570;SDS011;59407;42.682;23.322;2024-03-23T07:11:05;15.98;;;7.35;;
71570;SDS011;59407;42.682;23.322;2024-03-23T07:13:33;16.33;;;7.82;;
71570;SDS011;59407;42.682;23.322;2024-03-23T07:15:58;15.67;;;8.27;;
71570;SDS011;59407;42.682;23.322;2024-03-23T07:18:25;17.45;;;8.50;;
71570;SDS011;59407;42.682;23.322;2024-03-23T07:20:53;14.82;;;8.55;;
71570;SDS011;59407;42.682;23.322;2024-03-23T07:23:19;16.13;;;7.40;;
71570;SDS011;59407;42.682;23.322;2024-03-23T07:25:45;22.08;;;9.07;;
71570;SDS011;59407;42.682;23.322;2024-03-23T07:28:11;17.10;;;9.23;;
71570;SDS011;59407;42.682;23.322;2024-03-23T07:30:36;16.50;;;8.57;;
71570;SDS011;59407;42.682;23.322;2024-03-23T07:33:12;17.00;;;7.43;;
71570;SDS011;59407;42.682;23.322;2024-03-23T07:35:38;15.35;;;7.80;;
71570;SDS011;59407;42.682;23.322;2024-03-23T07:38:04;17.13;;;8.77;;
71570;SDS011;59407;42.682;23.322;2024-03-23T07:40:30;17.02;;;8.82;;
71570;SDS011;59407;42.682;23.322;2024-03-23T07:42:56;15.48;;;8.35;;
71570;SDS011;59407;42.682;23.322;2024-03-23T07:45:23;16.43;;;8.23;;
71570;SDS011;59407;42.682;23.322;2024-03-23T07:47:50;18.35;;;8.43;;
71570;SDS011;59407;42.682;23.322;2024-03-23T07:50:16;18.27;;;8.82;;
71570;SDS011;59407;42.682;23.322;2024-03-23T07:52:43;12.63;;;8.00;;
71570;SDS011;59407;42.682;23.322;2024-03-23T07:55:09;14.23;;;7.70;;
71570;SDS011;59407;42.682;23.322;2024-03-23T07:57:35;14.67;;;7.80;;
71570;SDS011;59407;42.682;23.322;2024-03-23T08:00:00;16.10;;;7.78;;
71570;SDS011;59407;42.682;23.322;2024-03-23T08:02:26;14.77;;;8.53;;
71570;SDS011;59407;42.682;23.322;2024-03-23T08:04:52;17.90;;;8.10;;
71570;SDS011;59407;42.682;23.322;2024-03-23T08:07:19;15.93;;;7.85;;
71570;SDS011;59407;42.682;23.322;2024-03-23T08:09:45;17.48;;;7.53;;
71570;SDS011;59407;42.682;23.322;2024-03-23T08:12:11;12.30;;;7.55;;
71570;SDS011;59407;42.682;23.322;2024-03-23T08:14:38;20.47;;;7.70;;
71570;SDS011;59407;42.682;23.322;2024-03-23T08:17:04;16.48;;;8.40;;
71570;SDS011;59407;42.682;23.322;2024-03-23T08:19:31;16.83;;;8.37;;
71570;SDS011;59407;42.682;23.322;2024-03-23T08:21:57;17.77;;;8.93;;
71570;SDS011;59407;42.682;23.322;2024-03-23T08:24:23;13.30;;;7.65;;
71570;SDS011;59407;42.682;23.322;2024-03-23T08:26:49;16.95;;;9.05;;
71570;SDS011;59407;42.682;23.322;2024-03-23T08:29:24;19.10;;;9.18;;
71570;SDS011;59407;42.682;23.322;2024-03-23T08:31:50;15.10;;;7.90;;
71570;SDS011;59407;42.682;23.322;2024-03-23T08:34:17;14.63;;;8.15;;
71570;SDS011;59407;42.682;23.322;2024-03-23T08:36:47;21.55;;;8.50;;
71570;SDS011;59407;42.682;23.322;2024-03-23T08:39:14;17.23;;;8.93;;
71570;SDS011;59407;42.682;23.322;2024-03-23T08:41:41;18.10;;;8.27;;
71570;SDS011;59407;42.682;23.322;2024-03-23T08:44:11;15.98;;;8.43;;
71570;SDS011;59407;42.682;23.322;2024-03-23T08:46:38;16.55;;;8.65;;
71570;SDS011;59407;42.682;23.322;2024-03-23T08:49:04;18.80;;;7.30;;
71570;SDS011;59407;42.682;23.322;2024-03-23T08:51:31;12.57;;;7.43;;
71570;SDS011;59407;42.682;23.322;2024-03-23T08:53:58;16.33;;;8.18;;
71570;SDS011;59407;42.682;23.322;2024-03-23T08:56:25;18.95;;;8.27;;
71570;SDS011;59407;42.682;23.322;2024-03-23T08:58:53;15.27;;;7.80;;
71570;SDS011;59407;42.682;23.322;2024-03-23T09:01:20;15.35;;;7.85;;
71570;SDS011;59407;42.682;23.322;2024-03-23T09:03:49;18.63;;;7.33;;
71570;SDS011;59407;42.682;23.322;2024-03-23T09:06:18;15.43;;;7.95;;
71570;SDS011;59407;42.682;23.322;2024-03-23T09:08:45;19.63;;;8.70;;
71570;SDS011;59407;42.682;23.322;2024-03-23T09:11:12;21.88;;;7.80;;
71570;SDS011;59407;42.682;23.322;2024-03-23T09:13:39;16.52;;;8.93;;
71570;SDS011;59407;42.682;23.322;2024-03-23T09:16:07;14.97;;;8.30;;
71570;SDS011;59407;42.682;23.322;2024-03-23T09:18:35;16.83;;;8.20;;
71570;SDS011;59407;42.682;23.322;2024-03-23T09:21:01;15.40;;;8.35;;
71570;SDS011;59407;42.682;23.322;2024-03-23T09:23:29;15.98;;;8.68;;
71570;SDS011;59407;42.682;23.322;2024-03-23T09:25:55;14.73;;;7.70;;
71570;SDS011;59407;42.682;23.322;2024-03-23T09:28:22;16.42;;;8.43;;
71570;SDS011;59407;42.682;23.322;2024-03-23T09:30:49;14.05;;;7.68;;
71570;SDS011;59407;42.682;23.322;2024-03-23T09:33:42;15.93;;;8.17;;
71570;SDS011;59407;42.682;23.322;2024-03-23T09:36:09;12.02;;;7.13;;
71570;SDS011;59407;42.682;23.322;2024-03-23T09:38:35;14.93;;;8.43;;
71570;SDS011;59407;42.682;23.322;2024-03-23T09:41:06;15.77;;;7.73;;
71570;SDS011;59407;42.682;23.322;2024-03-23T09:43:33;14.82;;;7.97;;
71570;SDS011;59407;42.682;23.322;2024-03-23T09:46:02;12.73;;;7.05;;
71570;SDS011;59407;42.682;23.322;2024-03-23T09:48:31;18.65;;;7.50;;
71570;SDS011;59407;42.682;23.322;2024-03-23T09:51:04;13.13;;;7.50;;
71570;SDS011;59407;42.682;23.322;2024-03-23T09:53:33;13.03;;;6.73;;
71570;SDS011;59407;42.682;23.322;2024-03-23T09:55:58;14.77;;;7.47;;
71570;SDS011;59407;42.682;23.322;2024-03-23T09:58:24;15.07;;;7.30;;
71570;SDS011;59407;42.682;23.322;2024-03-23T10:00:51;13.35;;;6.70;;
71570;SDS011;59407;42.682;23.322;2024-03-23T10:03:17;15.55;;;7.47;;
71570;SDS011;59407;42.682;23.322;2024-03-23T10:05:43;13.32;;;7.30;;
71570;SDS011;59407;42.682;23.322;2024-03-23T10:10:54;12.60;;;6.53;;
71570;SDS011;59407;42.682;23.322;2024-03-23T10:13:27;13.40;;;6.38;;
71570;SDS011;59407;42.682;23.322;2024-03-23T10:15:58;12.63;;;5.95;;
71570;SDS011;59407;42.682;23.322;2024-03-23T10:18:25;10.98;;;5.82;;
71570;SDS011;59407;42.682;23.322;2024-03-23T10:21:06;11.50;;;5.30;;
71570;SDS011;59407;42.682;23.322;2024-03-23T10:23:32;11.27;;;6.27;;
71570;SDS011;59407;42.682;23.322;2024-03-23T10:29:03;11.68;;;6.43;;
71570;SDS011;59407;42.682;23.322;2024-03-23T10:31:33;12.50;;;6.75;;
71570;SDS011;59407;42.682;23.322;2024-03-23T10:34:00;14.43;;;7.50;;
71570;SDS011;59407;42.682;23.322;2024-03-23T10:36:29;18.10;;;8.30;;
71570;SDS011;59407;42.682;23.322;2024-03-23T10:38:58;15.10;;;7.28;;
71570;SDS011;59407;42.682;23.322;2024-03-23T10:41:49;12.75;;;6.97;;
71570;SDS011;59407;42.682;23.322;2024-03-23T10:44:21;9.82;;;5.88;;
71570;SDS011;59407;42.682;23.322;2024-03-23T10:46:51;13.13;;;5.65;;
71570;SDS011;59407;42.682;23.322;2024-03-23T10:49:24;10.17;;;5.77;;
71570;SDS011;59407;42.682;23.322;2024-03-23T10:51:51;10.88;;;5.95;;
71570;SDS011;59407;42.682;23.322;2024-03-23T10:54:18;10.30;;;6.25;;
71570;SDS011;59407;42.682;23.322;2024-03-23T10:56:45;13.63;;;6.10;;
71570;SDS011;59407;42.682;23.322;2024-03-23T10:59:12;12.60;;;5.82;;
71570;SDS011;59407;42.682;23.322;2024-03-23T11:01:55;11.23;;;5.13;;
71570;SDS011;59407;42.682;23.322;2024-03-23T11:04:33;9.82;;;5.28;;
71570;SDS011;59407;42.682;23.322;2024-03-23T11:09:51;8.90;;;5.05;;
71570;SDS011;59407;42.682;23.322;2024-03-23T11:12:25;8.88;;;4.97;;
71570;SDS011;59407;42.682;23.322;2024-03-23T11:15:01;10.60;;;5.23;;
71570;SDS011;59407;42.682;23.322;2024-03-23T11:17:29;10.05;;;5.55;;
71570;SDS011;59407;42.682;23.322;2024-03-23T11:20:05;11.35;;;5.80;;
71570;SDS011;59407;42.682;23.322;2024-03-23T11:25:03;12.02;;;5.13;;
71570;SDS011;59407;42.682;23.322;2024-03-23T11:27:40;8.90;;;5.67;;
71570;SDS011;59407;42.682;23.322;2024-03-23T11:30:26;11.82;;;5.00;;
71570;SDS011;59407;42.682;23.322;2024-03-23T11:32:54;9.93;;;4.75;;
71570;SDS011;59407;42.682;23.322;2024-03-23T11:35:31;9.73;;;5.30;;
71570;SDS011;59407;42.682;23.322;2024-03-23T11:38:14;9.45;;;4.78;;
71570;SDS011;59407;42.682;23.322;2024-03-23T11:40:43;10.07;;;5.00;;
71570;SDS011;59407;42.682;23.322;2024-03-23T11:43:18;11.70;;;4.60;;
71570;SDS011;59407;42.682;23.322;2024-03-23T11:45:48;11.55;;;4.72;;
71570;SDS011;59407;42.682;23.322;2024-03-23T11:48:20;15.65;;;5.65;;
71570;SDS011;59407;42.682;23.322;2024-03-23T11:50:48;9.50;;;5.07;;
71570;SDS011;59407;42.682;23.322;2024-03-23T11:53:17;11.40;;;4.87;;
71570;SDS011;59407;42.682;23.322;2024-03-23T11:55:54;9.57;;;5.32;;
71570;SDS011;59407;42.682;23.322;2024-03-23T11:58:21;10.90;;;4.82;;
71570;SDS011;59407;42.682;23.322;2024-03-23T12:03:43;7.82;;;4.05;;
71570;SDS011;59407;42.682;23.322;2024-03-23T12:06:13;11.03;;;4.00;;
71570;SDS011;59407;42.682;23.322;2024-03-23T12:08:46;10.38;;;4.13;;
71570;SDS011;59407;42.682;23.322;2024-03-23T12:11:14;8.25;;;3.90;;
71570;SDS011;59407;42.682;23.322;2024-03-23T12:13:41;7.50;;;4.05;;
71570;SDS011;59407;42.682;23.322;2024-03-23T12:16:16;8.05;;;4.03;;
71570;SDS011;59407;42.682;23.322;2024-03-23T12:18:44;9.20;;;4.23;;
71570;SDS011;59407;42.682;23.322;2024-03-23T12:21:12;9.80;;;4.63;;
71570;SDS011;59407;42.682;23.322;2024-03-23T12:23:42;8.48;;;4.35;;
71570;SDS011;59407;42.682;23.322;2024-03-23T12:26:09;11.47;;;4.77;;
71570;SDS011;59407;42.682;23.322;2024-03-23T12:28:35;8.40;;;4.20;;
71570;SDS011;59407;42.682;23.322;2024-03-23T12:31:02;8.27;;;4.75;;
71570;SDS011;59407;42.682;23.322;2024-03-23T12:33:29;7.70;;;4.13;;
71570;SDS011;59407;42.682;23.322;2024-03-23T12:35:55;9.30;;;3.47;;
71570;SDS011;59407;42.682;23.322;2024-03-23T12:38:22;7.80;;;4.00;;
71570;SDS011;59407;42.682;23.322;2024-03-23T12:40:47;7.83;;;3.67;;
71570;SDS011;59407;42.682;23.322;2024-03-23T12:43:15;5.85;;;2.47;;
71570;SDS011;59407;42.682;23.322;2024-03-23T12:45:40;6.60;;;2.40;;
71570;SDS011;59407;42.682;23.322;2024-03-23T12:48:06;7.57;;;2.97;;
71570;SDS011;59407;42.682;23.322;2024-03-23T12:50:32;6.88;;;3.58;;
71570;SDS011;59407;42.682;23.322;2024-03-23T12:52:58;9.23;;;4.20;;
71570;SDS011;59407;42.682;23.322;2024-03-23T12:55:23;5.20;;;2.72;;
71570;SDS011;59407;42.682;23.322;2024-03-23T12:57:49;2.80;;;1.23;;
71570;SDS011;59407;42.682;23.322;2024-03-23T13:00:14;3.83;;;1.20;;
71570;SDS011;59407;42.682;23.322;2024-03-23T13:02:42;3.30;;;1.55;;
71570;SDS011;59407;42.682;23.322;2024-03-23T13:05:10;3.17;;;0.95;;
71570;SDS011;59407;42.682;23.322;2024-03-23T13:07:36;3.23;;;0.93;;
71570;SDS011;59407;42.682;23.322;2024-03-23T13:10:05;3.13;;;0.70;;
71570;SDS011;59407;42.682;23.322;2024-03-23T13:12:31;4.43;;;1.17;;
71570;SDS011;59407;42.682;23.322;2024-03-23T13:14:58;2.70;;;0.90;;
71570;SDS011;59407;42.682;23.322;2024-03-23T13:17:25;2.90;;;0.77;;
71570;SDS011;59407;42.682;23.322;2024-03-23T13:19:54;2.47;;;1.10;;
71570;SDS011;59407;42.682;23.322;2024-03-23T13:22:23;2.17;;;0.70;;
71570;SDS011;59407;42.682;23.322;2024-03-23T13:24:48;4.13;;;1.00;;
71570;SDS011;59407;42.682;23.322;2024-03-23T13:27:16;2.25;;;0.85;;
71570;SDS011;59407;42.682;23.322;2024-03-23T13:29:41;3.13;;;0.87;;
71570;SDS011;59407;42.682;23.322;2024-03-23T13:32:07;2.30;;;0.70;;
71570;SDS011;59407;42.682;23.322;2024-03-23T13:34:33;2.88;;;0.77;;
71570;SDS011;59407;42.682;23.322;2024-03-23T13:37:00;3.10;;;0.90;;
71570;SDS011;59407;42.682;23.322;2024-03-23T13:39:26;2.08;;;0.73;;
71570;SDS011;59407;42.682;23.322;2024-03-23T13:41:54;2.50;;;0.80;;
71570;SDS011;59407;42.682;23.322;2024-03-23T13:44:23;3.35;;;0.80;;
71570;SDS011;59407;42.682;23.322;2024-03-23T13:46:51;2.33;;;0.85;;
71570;SDS011;59407;42.682;23.322;2024-03-23T13:49:29;2.23;;;0.90;;
71570;SDS011;59407;42.682;23.322;2024-03-23T13:52:07;16.63;;;10.02;;
71570;SDS011;59407;42.682;23.322;2024-03-23T13:54:39;4.03;;;1.60;;
71570;SDS011;59407;42.682;23.322;2024-03-23T13:57:10;3.70;;;0.90;;
71570;SDS011;59407;42.682;23.322;2024-03-23T13:59:35;3.03;;;1.03;;
71570;SDS011;59407;42.682;23.322;2024-03-23T14:02:02;3.00;;;0.80;;
71570;SDS011;59407;42.682;23.322;2024-03-23T14:04:30;2.92;;;0.70;;
71570;SDS011;59407;42.682;23.322;2024-03-23T14:06:57;3.45;;;1.13;;
71570;SDS011;59407;42.682;23.322;2024-03-23T14:09:25;2.87;;;1.10;;
71570;SDS011;59407;42.682;23.322;2024-03-23T14:12:18;2.85;;;1.05;;
71570;SDS011;59407;42.682;23.322;2024-03-23T14:14:43;3.00;;;1.10;;
71570;SDS011;59407;42.682;23.322;2024-03-23T14:17:11;3.07;;;1.00;;
71570;SDS011;59407;42.682;23.322;2024-03-23T14:19:39;3.28;;;0.93;;
71570;SDS011;59407;42.682;23.322;2024-03-23T14:22:09;2.67;;;1.10;;
71570;SDS011;59407;42.682;23.322;2024-03-23T14:24:39;2.60;;;0.90;;
71570;SDS011;59407;42.682;23.322;2024-03-23T14:27:05;2.55;;;0.98;;
71570;SDS011;59407;42.682;23.322;2024-03-23T14:29:36;3.10;;;0.93;;
71570;SDS011;59407;42.682;23.322;2024-03-23T14:32:22;3.28;;;1.00;;
71570;SDS011;59407;42.682;23.322;2024-03-23T14:34:49;4.50;;;1.30;;
71570;SDS011;59407;42.682;23.322;2024-03-23T14:37:32;5.10;;;1.40;;
71570;SDS011;59407;42.682;23.322;2024-03-23T14:40:17;3.80;;;1.10;;
71570;SDS011;59407;42.682;23.322;2024-03-23T14:42:45;2.67;;;1.37;;
71570;SDS011;59407;42.682;23.322;2024-03-23T14:45:11;3.13;;;1.15;;
71570;SDS011;59407;42.682;23.322;2024-03-23T14:47:40;2.20;;;0.70;;
71570;SDS011;59407;42.682;23.322;2024-03-23T14:50:07;2.30;;;0.90;;
71570;SDS011;59407;42.682;23.322;2024-03-23T14:52:33;3.28;;;1.30;;
71570;SDS011;59407;42.682;23.322;2024-03-23T14:54:59;3.50;;;1.47;;
71570;SDS011;59407;42.682;23.322;2024-03-23T14:57:36;3.42;;;1.80;;
71570;SDS011;59407;42.682;23.322;2024-03-23T15:00:09;3.53;;;1.52;;
71570;SDS011;59407;42.682;23.322;2024-03-23T15:02:38;6.15;;;2.10;;
71570;SDS011;59407;42.682;23.322;2024-03-23T15:05:05;3.93;;;1.80;;
71570;SDS011;59407;42.682;23.322;2024-03-23T15:07:35;4.95;;;1.60;;
71570;SDS011;59407;42.682;23.322;2024-03-23T15:10:04;4.15;;;1.60;;
71570;SDS011;59407;42.682;23.322;2024-03-23T15:12:37;4.30;;;1.95;;
71570;SDS011;59407;42.682;23.322;2024-03-23T15:15:07;4.78;;;1.88;;
71570;SDS011;59407;42.682;23.322;2024-03-23T15:17:37;4.13;;;1.60;;
71570;SDS011;59407;42.682;23.322;2024-03-23T15:20:09;4.90;;;2.03;;
71570;SDS011;59407;42.682;23.322;2024-03-23T15:22:47;5.55;;;1.83;;
71570;SDS011;59407;42.682;23.322;2024-03-23T15:25:15;4.18;;;1.83;;
71570;SDS011;59407;42.682;23.322;2024-03-23T15:27:43;5.78;;;2.58;;
71570;SDS011;59407;42.682;23.322;2024-03-23T15:30:09;5.67;;;1.93;;
71570;SDS011;59407;42.682;23.322;2024-03-23T15:32:39;3.92;;;1.88;;
71570;SDS011;59407;42.682;23.322;2024-03-23T15:35:06;5.78;;;2.15;;
71570;SDS011;59407;42.682;23.322;2024-03-23T15:37:56;6.70;;;3.25;;